Time;durP1;ratioP1;P1;durP2;ratioP2;P2;SDS_P1;SDS_P2;PMS_P1;PMS_P2;Temp;Humidity;BMP_temperature;BMP_pressure;BME280_temperature;BME280_humidity;BME280_pressure;Samples;Min_cycle;Max_cycle;Signal;HPM_P1;HPM_P2
2021/09/15 00:01:41;;;;;;;16.55;9.85;;;;;;;18.21;100.00;101067.53;5201538;28;20041;-75
2021/09/15 00:04:12;;;;;;;17.90;10.57;;;;;;;18.20;100.00;101074.00;5201629;28;20021;-74
2021/09/15 00:06:42;;;;;;;16.45;10.02;;;;;;;18.22;100.00;101065.66;5194795;28;20041;-76
2021/09/15 00:09:13;;;;;;;17.15;10.35;;;;;;;18.21;100.00;101064.81;5194390;28;20037;-75
2021/09/15 00:11:43;;;;;;;19.80;10.85;;;;;;;18.20;100.00;101060.44;5201536;28;20399;-74
2021/09/15 00:14:14;;;;;;;15.52;10.35;;;;;;;18.20;100.00;101065.03;5201370;28;20112;-75
2021/09/15 00:16:44;;;;;;;15.52;9.50;;;;;;;18.23;100.00;101064.63;5201288;28;20527;-75
2021/09/15 00:19:15;;;;;;;17.77;10.38;;;;;;;18.19;100.00;101064.22;5201265;28;20022;-75
2021/09/15 00:21:46;;;;;;;19.10;11.30;;;;;;;18.14;100.00;101061.28;5201253;28;20064;-75
2021/09/15 00:24:16;;;;;;;19.55;10.05;;;;;;;18.14;100.00;101064.00;5200980;28;20074;-74
2021/09/15 00:26:46;;;;;;;15.30;10.23;;;;;;;18.14;100.00;101069.44;5201372;28;20108;-74
2021/09/15 00:29:17;;;;;;;18.23;10.75;;;;;;;18.13;100.00;101066.94;5201017;28;20058;-74
2021/09/15 00:31:47;;;;;;;19.15;10.13;;;;;;;18.10;100.00;101069.00;5201427;28;20037;-75
2021/09/15 00:34:18;;;;;;;19.92;10.27;;;;;;;18.08;100.00;101073.00;5200686;28;20026;-75
2021/09/15 00:36:48;;;;;;;24.30;10.60;;;;;;;18.05;100.00;101062.56;5201503;28;20049;-75
2021/09/15 00:39:19;;;;;;;16.65;10.13;;;;;;;18.03;100.00;101059.22;5200099;28;20433;-74
2021/09/15 00:41:49;;;;;;;14.48;9.25;;;;;;;18.04;100.00;101055.47;5200977;28;20501;-74
2021/09/15 00:44:20;;;;;;;15.68;10.30;;;;;;;18.03;100.00;101051.06;5201048;28;20112;-75
2021/09/15 00:46:51;;;;;;;17.38;10.85;;;;;;;18.02;100.00;101052.97;5200672;28;20108;-75
2021/09/15 00:49:21;;;;;;;18.30;10.60;;;;;;;18.02;100.00;101052.09;5200836;28;20029;-74
2021/09/15 00:51:52;;;;;;;19.20;10.77;;;;;;;18.00;100.00;101046.88;5200981;28;20463;-74
2021/09/15 00:54:23;;;;;;;16.17;10.35;;;;;;;17.99;100.00;101047.94;5183175;28;20041;-74
2021/09/15 00:56:53;;;;;;;19.90;10.48;;;;;;;17.97;100.00;101046.47;5200867;28;20494;-73
2021/09/15 00:59:23;;;;;;;17.50;11.07;;;;;;;17.95;100.00;101046.69;5200874;28;20490;-73
2021/09/15 01:01:54;;;;;;;15.25;10.45;;;;;;;17.94;100.00;101046.91;5201738;28;20470;-73
2021/09/15 01:04:24;;;;;;;19.00;10.80;;;;;;;17.93;100.00;101042.53;5201497;28;20025;-74
2021/09/15 01:06:58;;;;;;;18.83;10.73;;;;;;;17.93;100.00;101037.94;5201091;28;20022;-73
2021/09/15 01:09:31;;;;;;;21.25;11.23;;;;;;;17.95;100.00;101040.44;5200705;28;20036;-73
2021/09/15 01:12:02;;;;;;;24.52;9.80;;;;;;;17.95;100.00;101040.44;5200906;28;20035;-74
2021/09/15 01:14:33;;;;;;;19.50;11.02;;;;;;;17.99;100.00;101031.66;5203779;28;20029;-74
2021/09/15 01:17:04;;;;;;;21.50;11.55;;;;;;;17.93;100.00;101029.78;5205204;28;20025;-73
2021/09/15 01:19:34;;;;;;;19.88;11.70;;;;;;;17.92;100.00;101029.97;5204763;28;20022;-73
2021/09/15 01:22:13;;;;;;;31.25;13.77;;;;;;;17.92;100.00;101040.84;5204685;28;20024;-73
2021/09/15 01:24:46;;;;;;;20.75;12.13;;;;;;;17.89;100.00;101038.56;5205089;28;20483;-73
2021/09/15 01:27:20;;;;;;;21.38;11.68;;;;;;;17.81;100.00;101037.72;5205110;28;20371;-72
2021/09/15 01:29:50;;;;;;;17.20;10.48;;;;;;;17.77;100.00;101033.75;5204882;28;20066;-73
2021/09/15 01:32:21;;;;;;;20.90;12.30;;;;;;;17.77;100.00;101024.75;5204777;28;20018;-74
2021/09/15 01:34:52;;;;;;;13.90;9.70;;;;;;;17.78;100.00;101030.00;5204394;28;20031;-73
2021/09/15 01:37:22;;;;;;;20.02;11.38;;;;;;;17.78;100.00;101029.16;5205004;28;20497;-73
2021/09/15 01:39:55;;;;;;;18.10;11.70;;;;;;;17.80;100.00;101036.03;5204775;28;20021;-74
2021/09/15 01:42:26;;;;;;;20.50;11.38;;;;;;;17.79;100.00;101028.13;5204458;28;20033;-74
2021/09/15 01:44:56;;;;;;;24.23;12.70;;;;;;;17.76;100.00;101023.09;5204639;28;20017;-73
2021/09/15 01:47:27;;;;;;;21.83;12.38;;;;;;;17.71;100.00;101015.56;5204302;28;20108;-74
2021/09/15 01:49:58;;;;;;;20.65;11.52;;;;;;;17.67;100.00;101010.75;5204022;28;20546;-74
2021/09/15 01:52:28;;;;;;;21.83;11.07;;;;;;;17.64;100.00;101016.63;5204351;28;20029;-74
2021/09/15 01:54:59;;;;;;;21.05;12.38;;;;;;;17.58;100.00;101013.69;5204151;28;20411;-75
2021/09/15 01:57:30;;;;;;;23.48;11.60;;;;;;;17.54;100.00;101007.00;5204122;28;20028;-74
2021/09/15 02:00:05;;;;;;;21.63;13.27;;;;;;;17.52;100.00;101005.53;5204028;28;20036;-74
2021/09/15 02:02:36;;;;;;;19.77;11.30;;;;;;;17.49;100.00;101009.50;5203989;28;20082;-74
2021/09/15 02:05:07;;;;;;;18.30;10.02;;;;;;;17.48;100.00;101007.00;5203511;28;20033;-74
2021/09/15 02:07:38;;;;;;;19.58;12.65;;;;;;;17.46;100.00;101006.38;5204036;28;20033;-74
2021/09/15 02:10:09;;;;;;;16.52;10.65;;;;;;;17.46;100.00;100998.22;5203538;28;20021;-74
2021/09/15 02:12:40;;;;;;;21.13;12.88;;;;;;;17.44;100.00;100997.63;5204144;28;20540;-74
2021/09/15 02:15:13;;;;;;;18.48;12.23;;;;;;;17.44;100.00;100994.91;5203915;28;20017;-75
2021/09/15 02:17:44;;;;;;;24.52;11.90;;;;;;;17.42;100.00;100988.84;5203928;28;20029;-74
2021/09/15 02:20:14;;;;;;;18.35;10.70;;;;;;;17.39;100.00;100994.69;5203890;28;20022;-75
2021/09/15 02:22:45;;;;;;;21.85;11.82;;;;;;;17.35;100.00;100991.56;5203453;28;20041;-75
2021/09/15 02:25:15;;;;;;;21.15;14.02;;;;;;;17.30;100.00;100992.16;5201423;28;20046;-74
2021/09/15 02:27:46;;;;;;;37.60;13.55;;;;;;;17.28;100.00;100993.44;5202460;28;20405;-75
2021/09/15 02:30:17;;;;;;;33.42;11.77;;;;;;;17.21;100.00;100984.44;5203819;28;20039;-74
2021/09/15 02:32:47;;;;;;;14.98;10.43;;;;;;;17.14;100.00;100984.44;5203822;28;20498;-73
2021/09/15 02:35:18;;;;;;;18.30;11.40;;;;;;;17.07;100.00;100983.59;5203277;28;20474;-74
2021/09/15 02:37:48;;;;;;;19.00;12.80;;;;;;;17.05;100.00;100989.22;5203807;28;20022;-73
2021/09/15 02:40:18;;;;;;;30.08;14.45;;;;;;;17.07;100.00;100987.16;5203319;28;20117;-74
2021/09/15 02:42:49;;;;;;;19.67;12.00;;;;;;;17.09;100.00;100979.63;5203368;28;20026;-74
2021/09/15 02:45:19;;;;;;;24.45;12.82;;;;;;;17.12;100.00;100974.81;5203055;28;20545;-73
2021/09/15 02:47:50;;;;;;;20.85;12.45;;;;;;;17.15;100.00;100971.72;5203170;28;20447;-73
2021/09/15 02:50:20;;;;;;;20.45;13.45;;;;;;;17.20;100.00;100974.66;5202936;28;20029;-73
2021/09/15 02:52:51;;;;;;;21.55;13.20;;;;;;;17.22;100.00;100977.97;5203193;28;20037;-73
2021/09/15 02:55:21;;;;;;;21.80;13.23;;;;;;;17.31;100.00;100982.16;5202902;28;20040;-74
2021/09/15 02:57:52;;;;;;;27.05;15.77;;;;;;;17.31;100.00;100987.56;5203271;28;20029;-74
2021/09/15 03:00:23;;;;;;;25.10;13.55;;;;;;;17.29;100.00;100985.09;5202425;28;20459;-74
2021/09/15 03:02:53;;;;;;;26.85;13.95;;;;;;;17.29;100.00;100982.38;5202860;28;20013;-74
2021/09/15 03:05:23;;;;;;;21.60;12.60;;;;;;;17.28;100.00;100979.88;5202777;28;20079;-74
2021/09/15 03:07:54;;;;;;;25.38;14.85;;;;;;;17.26;100.00;100981.94;5202902;28;20364;-74
2021/09/15 03:10:25;;;;;;;27.90;14.30;;;;;;;17.25;100.00;100977.56;5203004;28;20025;-74
2021/09/15 03:12:56;;;;;;;28.00;14.48;;;;;;;17.25;100.00;100980.28;5202460;28;20104;-74
2021/09/15 03:15:26;;;;;;;24.35;14.50;;;;;;;17.26;100.00;100979.22;5202553;28;20026;-74
2021/09/15 03:17:57;;;;;;;22.42;12.77;;;;;;;17.32;100.00;100968.41;5202512;28;20029;-75
2021/09/15 03:20:27;;;;;;;28.77;14.50;;;;;;;17.52;100.00;100967.56;5202402;28;20064;-75
2021/09/15 03:22:57;;;;;;;23.65;14.40;;;;;;;17.60;100.00;100964.66;5201025;28;20489;-75
2021/09/15 03:25:28;;;;;;;25.45;16.63;;;;;;;17.53;100.00;100966.53;5202268;28;20482;-73
2021/09/15 03:27:59;;;;;;;28.25;15.25;;;;;;;17.51;100.00;100964.00;5202667;28;20065;-74
2021/09/15 03:30:29;;;;;;;29.48;16.45;;;;;;;17.52;100.00;100962.13;5202232;28;20037;-74
2021/09/15 03:32:59;;;;;;;23.45;16.27;;;;;;;17.53;100.00;100961.13;5202642;28;20033;-76
2021/09/15 03:35:30;;;;;;;25.58;15.50;;;;;;;17.50;100.00;100961.53;5202207;28;20035;-74
2021/09/15 03:38:00;;;;;;;25.88;14.80;;;;;;;17.49;100.00;100966.13;5202722;28;20036;-75
2021/09/15 03:40:31;;;;;;;37.22;16.52;;;;;;;17.51;100.00;100971.31;5202107;28;20493;-75
2021/09/15 03:43:02;;;;;;;29.70;17.00;;;;;;;17.48;100.00;100961.75;5202152;28;20079;-74
2021/09/15 03:45:32;;;;;;;27.85;16.27;;;;;;;17.48;100.00;100972.59;5202328;28;20041;-75
2021/09/15 03:48:03;;;;;;;32.33;19.02;;;;;;;17.52;100.00;100967.56;5202084;28;20025;-75
2021/09/15 03:50:34;;;;;;;36.13;20.48;;;;;;;17.57;100.00;100970.47;5184248;28;20121;-74
2021/09/15 03:53:04;;;;;;;32.38;17.25;;;;;;;17.60;100.00;100970.91;5202053;28;20029;-76
2021/09/15 03:55:35;;;;;;;31.50;17.63;;;;;;;17.62;100.00;100973.44;5184462;28;20056;-77
2021/09/15 03:58:05;;;;;;;35.55;18.45;;;;;;;17.65;100.00;100975.69;5203260;28;20383;-77
2021/09/15 04:00:36;;;;;;;29.88;17.60;;;;;;;17.66;100.00;100976.53;5202074;28;20376;-78
2021/09/15 04:03:06;;;;;;;29.75;17.80;;;;;;;17.66;100.00;100976.53;5202019;28;20627;-76
2021/09/15 04:05:37;;;;;;;33.65;19.05;;;;;;;17.70;100.00;100986.75;5201884;28;20033;-77
2021/09/15 04:08:07;;;;;;;30.77;17.23;;;;;;;17.70;100.00;100975.06;5201912;28;20033;-76
2021/09/15 04:10:38;;;;;;;34.67;17.67;;;;;;;17.70;100.00;100973.19;5201534;28;20014;-77
2021/09/15 04:13:08;;;;;;;43.53;19.98;;;;;;;17.71;100.00;100979.44;5201339;28;20076;-76
2021/09/15 04:15:39;;;;;;;47.63;20.92;;;;;;;17.72;100.00;100971.13;5201657;28;20044;-77
2021/09/15 04:18:09;;;;;;;39.65;20.27;;;;;;;17.73;100.00;100974.69;5201824;28;20513;-77
2021/09/15 04:20:41;;;;;;;35.10;18.58;;;;;;;17.71;100.00;100972.13;5201335;28;20087;-76
2021/09/15 04:23:22;;;;;;;39.03;19.27;;;;;;;17.72;100.00;100967.53;5201622;28;20056;-76
2021/09/15 04:31:32;;;;;;;38.50;20.38;;;;;;;17.66;100.00;100973.81;5202039;28;20029;-75
2021/09/15 04:34:02;;;;;;;40.13;22.17;;;;;;;17.65;100.00;100966.72;5201268;28;20398;-76
2021/09/15 04:36:33;;;;;;;38.35;20.08;;;;;;;17.66;100.00;100969.22;5201407;28;20433;-76
2021/09/15 04:39:03;;;;;;;37.78;21.42;;;;;;;17.68;100.00;100975.28;5201110;28;20033;-77
2021/09/15 04:41:34;;;;;;;43.95;21.25;;;;;;;17.71;100.00;100971.31;5201205;28;20021;-75
2021/09/15 04:44:04;;;;;;;41.13;20.83;;;;;;;17.73;100.00;100972.00;5201434;28;20032;-76
2021/09/15 04:46:35;;;;;;;50.17;23.08;;;;;;;17.71;100.00;100977.56;5200962;28;20021;-75
2021/09/15 04:49:05;;;;;;;47.22;25.00;;;;;;;17.69;100.00;100976.97;5200644;28;20479;-76
2021/09/15 04:51:36;;;;;;;38.83;22.20;;;;;;;17.69;100.00;100971.53;5183388;28;20033;-76
2021/09/15 04:54:06;;;;;;;48.17;23.08;;;;;;;17.70;100.00;100978.63;5201158;28;20022;-76
2021/09/15 04:56:37;;;;;;;43.92;24.27;;;;;;;17.71;100.00;100977.56;5183390;28;20040;-76
2021/09/15 04:59:07;;;;;;;44.35;22.58;;;;;;;17.72;100.00;100973.84;5200768;28;20026;-77
2021/09/15 05:01:38;;;;;;;44.47;23.35;;;;;;;17.73;100.00;100982.84;5201083;28;20037;-77
2021/09/15 05:04:08;;;;;;;40.10;23.58;;;;;;;17.74;100.00;100979.06;5201140;28;20025;-76
2021/09/15 05:06:38;;;;;;;42.75;23.75;;;;;;;17.74;100.00;100963.63;5195300;28;20124;-76
2021/09/15 05:09:09;;;;;;;40.20;21.42;;;;;;;17.78;100.00;100978.44;5193447;28;20554;-76
2021/09/15 05:11:39;;;;;;;33.42;19.90;;;;;;;17.86;100.00;100972.78;5200598;28;20450;-76
2021/09/15 05:14:10;;;;;;;41.90;21.65;;;;;;;17.80;100.00;100973.63;5200672;28;20112;-75
2021/09/15 05:16:40;;;;;;;34.50;19.38;;;;;;;17.79;100.00;100973.84;5200938;28;20095;-77
2021/09/15 05:19:11;;;;;;;40.22;22.45;;;;;;;17.77;100.00;100967.78;5200586;28;20021;-77
2021/09/15 05:21:41;;;;;;;39.95;22.73;;;;;;;17.77;100.00;100973.22;5201182;28;20025;-77
2021/09/15 05:24:12;;;;;;;36.97;21.45;;;;;;;17.74;100.00;100977.19;5200689;28;20131;-76
2021/09/15 05:26:42;;;;;;;42.67;21.65;;;;;;;17.72;100.00;100981.97;5200870;28;20105;-75
2021/09/15 05:29:13;;;;;;;38.00;22.42;;;;;;;17.70;100.00;100970.47;5200857;28;20034;-76
2021/09/15 05:31:43;;;;;;;42.17;22.08;;;;;;;17.70;100.00;100975.06;5201064;28;20537;-76
2021/09/15 05:34:14;;;;;;;36.95;21.73;;;;;;;17.70;100.00;100975.91;5201098;28;20036;-76
2021/09/15 05:36:44;;;;;;;40.53;23.15;;;;;;;17.70;100.00;100983.22;5200593;28;20022;-77
2021/09/15 05:39:15;;;;;;;48.45;23.70;;;;;;;17.71;100.00;100987.59;5200743;28;20093;-77
2021/09/15 05:41:45;;;;;;;58.63;24.45;;;;;;;17.71;100.00;100995.72;5200680;28;20029;-77
2021/09/15 05:44:16;;;;;;;40.80;21.00;;;;;;;17.71;100.00;100993.00;5200613;28;20128;-77
2021/09/15 05:46:46;;;;;;;35.70;21.48;;;;;;;17.72;100.00;101002.81;5182545;28;20403;-75
2021/09/15 05:49:17;;;;;;;45.83;22.88;;;;;;;17.71;100.00;101004.69;5200645;28;20112;-76
2021/09/15 05:51:47;;;;;;;46.00;23.27;;;;;;;17.73;100.00;101005.38;5182907;28;20284;-77
2021/09/15 05:54:18;;;;;;;48.35;23.50;;;;;;;17.72;100.00;101009.09;5200621;28;20025;-77
2021/09/15 05:56:48;;;;;;;52.90;24.02;;;;;;;17.75;100.00;101016.00;5182874;28;20067;-76
2021/09/15 05:59:19;;;;;;;51.28;24.23;;;;;;;17.75;100.00;101014.13;5200028;28;20018;-76
2021/09/15 06:01:49;;;;;;;56.15;25.23;;;;;;;17.76;100.00;101013.06;5202749;28;20030;-76
2021/09/15 06:04:20;;;;;;;48.28;25.38;;;;;;;17.78;100.00;101012.88;5204572;28;20021;-74
2021/09/15 06:06:50;;;;;;;48.22;24.75;;;;;;;17.77;100.00;101017.50;5204200;28;20136;-74
2021/09/15 06:09:21;;;;;;;41.53;22.80;;;;;;;17.77;100.00;101017.50;5204199;28;20467;-74
2021/09/15 06:11:51;;;;;;;47.80;23.00;;;;;;;17.79;100.00;101019.97;5203580;28;20115;-74
2021/09/15 06:14:21;;;;;;;50.28;24.20;;;;;;;17.81;100.00;101024.13;5203798;28;20080;-74
2021/09/15 06:16:52;;;;;;;45.53;24.23;;;;;;;17.82;100.00;101027.69;5203959;28;20072;-75
2021/09/15 06:19:23;;;;;;;42.33;23.45;;;;;;;17.86;100.00;101032.47;5203667;28;20021;-74
2021/09/15 06:21:53;;;;;;;42.67;22.70;;;;;;;17.88;100.00;101031.47;5203895;28;20053;-74
2021/09/15 06:24:25;;;;;;;38.92;21.05;;;;;;;17.89;100.00;101033.13;5203433;28;20462;-74
2021/09/15 06:26:55;;;;;;;39.83;22.52;;;;;;;17.84;100.00;101029.16;5203903;28;20113;-75
2021/09/15 06:29:26;;;;;;;38.22;21.35;;;;;;;17.83;100.00;101030.22;5203583;28;20108;-75
2021/09/15 06:31:56;;;;;;;43.85;23.58;;;;;;;17.83;100.00;101038.34;5203344;28;20025;-75
2021/09/15 06:34:27;;;;;;;48.45;24.63;;;;;;;17.86;100.00;101034.38;5203606;28;20036;-75
2021/09/15 06:36:57;;;;;;;44.08;25.83;;;;;;;17.85;100.00;101033.53;5203206;28;20021;-75
2021/09/15 06:39:27;;;;;;;49.63;26.20;;;;;;;17.85;100.00;101038.13;5203416;28;20475;-74
2021/09/15 06:41:58;;;;;;;51.80;27.55;;;;;;;17.87;100.00;101041.47;5203194;28;20083;-75
2021/09/15 06:44:28;;;;;;;51.85;25.83;;;;;;;17.89;100.00;101043.97;5203324;28;20032;-75
2021/09/15 06:46:59;;;;;;;61.67;29.33;;;;;;;17.92;100.00;101046.25;5198549;28;20108;-74
2021/09/15 06:49:30;;;;;;;59.72;29.45;;;;;;;17.94;100.00;101053.16;5201225;28;20052;-74
2021/09/15 06:52:00;;;;;;;62.22;29.60;;;;;;;17.96;100.00;101052.94;5202109;28;20033;-75
2021/09/15 06:54:31;;;;;;;68.18;30.88;;;;;;;17.98;100.00;101051.72;5202198;28;20360;-74
2021/09/15 06:57:01;;;;;;;87.53;37.45;;;;;;;18.02;100.00;101057.53;5202379;28;20100;-75
2021/09/15 06:59:32;;;;;;;97.68;39.03;;;;;;;18.17;100.00;101062.72;5202049;28;20036;-75
2021/09/15 07:02:03;;;;;;;91.35;38.53;;;;;;;18.16;100.00;101063.78;5201896;28;20033;-75
2021/09/15 07:04:33;;;;;;;111.32;45.72;;;;;;;18.29;100.00;101059.19;5201423;28;20107;-75
2021/09/15 07:07:03;;;;;;;125.13;48.92;;;;;;;18.27;100.00;101071.28;5201849;28;20026;-74
2021/09/15 07:09:34;;;;;;;123.93;48.67;;;;;;;18.33;100.00;101065.03;5201644;28;20025;-75
2021/09/15 07:12:05;;;;;;;112.50;50.28;;;;;;;18.35;100.00;101052.88;5201454;28;20025;-75
2021/09/15 07:14:36;;;;;;;120.85;49.40;;;;;;;18.36;100.00;101060.00;5201110;28;20041;-74
2021/09/15 07:17:07;;;;;;;121.25;50.47;;;;;;;18.32;100.00;101064.19;5183956;28;20057;-74
2021/09/15 07:19:37;;;;;;;110.70;47.03;;;;;;;18.36;100.00;101062.69;5201638;28;20450;-75
2021/09/15 07:22:08;;;;;;;121.93;50.88;;;;;;;18.35;100.00;101069.19;5201595;28;20490;-74
2021/09/15 07:24:38;;;;;;;124.90;52.33;;;;;;;18.32;100.00;101063.34;5201131;28;20025;-75
2021/09/15 07:27:10;;;;;;;120.80;50.78;;;;;;;18.33;100.00;101062.31;5201113;28;20068;-74
2021/09/15 07:29:40;;;;;;;123.15;49.55;;;;;;;18.28;100.00;101057.50;5201630;28;20516;-75
2021/09/15 07:32:11;;;;;;;123.38;52.63;;;;;;;18.35;100.00;101060.22;5201254;28;20121;-75
2021/09/15 07:34:44;;;;;;;123.60;54.22;;;;;;;18.33;100.00;101048.72;5183519;28;20433;-75
2021/09/15 07:37:15;;;;;;;125.35;54.75;;;;;;;18.40;100.00;101060.41;5201321;28;20036;-74
2021/09/15 07:39:46;;;;;;;126.80;53.88;;;;;;;18.35;100.00;101058.31;5201035;28;20467;-74
2021/09/15 07:42:16;;;;;;;130.60;55.78;;;;;;;18.37;100.00;101060.81;5201162;28;20379;-74
2021/09/15 07:44:48;;;;;;;132.35;56.53;;;;;;;18.49;100.00;101069.16;5201050;28;20025;-74
2021/09/15 07:47:18;;;;;;;127.28;54.85;;;;;;;18.48;100.00;101073.78;5201007;28;20028;-74
2021/09/15 07:49:49;;;;;;;142.20;56.15;;;;;;;18.47;100.00;101072.06;5200159;28;20465;-75
2021/09/15 07:52:20;;;;;;;152.18;60.75;;;;;;;18.62;100.00;101063.69;5200943;28;20033;-75
2021/09/15 07:54:50;;;;;;;142.88;59.97;;;;;;;18.72;100.00;101060.53;5200433;28;20021;-74
2021/09/15 07:57:21;;;;;;;151.95;62.70;;;;;;;18.75;100.00;101066.41;5200448;28;20057;-74
2021/09/15 07:59:51;;;;;;;140.65;60.85;;;;;;;18.91;100.00;101064.25;5200244;28;20028;-74
2021/09/15 08:02:22;;;;;;;149.73;62.78;;;;;;;19.14;100.00;101061.84;5200501;28;20025;-73
2021/09/15 08:04:52;;;;;;;133.73;56.80;;;;;;;19.44;100.00;101067.50;5200059;28;20104;-74
2021/09/15 08:07:23;;;;;;;121.82;55.20;;;;;;;19.50;100.00;101054.91;5188688;28;20048;-74
2021/09/15 08:09:53;;;;;;;111.70;53.17;;;;;;;19.53;100.00;101062.63;5198844;28;20022;-73
2021/09/15 08:12:24;;;;;;;112.10;53.17;;;;;;;19.57;100.00;101061.13;5200714;28;20553;-74
2021/09/15 08:14:54;;;;;;;114.80;50.78;;;;;;;19.52;100.00;101064.50;5199820;28;20471;-74
2021/09/15 08:17:25;;;;;;;106.00;50.55;;;;;;;19.52;100.00;101064.50;5200466;28;20109;-73
2021/09/15 08:19:55;;;;;;;102.03;50.10;;;;;;;19.52;100.00;101066.41;5200452;28;20070;-74
2021/09/15 08:22:25;;;;;;;98.10;50.28;;;;;;;19.37;100.00;101067.53;5200229;28;20060;-73
2021/09/15 08:24:56;;;;;;;117.80;51.72;;;;;;;19.28;100.00;101068.88;5199911;28;20029;-73
2021/09/15 08:27:27;;;;;;;94.30;48.50;;;;;;;19.37;100.00;101069.44;5199704;28;20064;-73
2021/09/15 08:29:57;;;;;;;94.90;46.60;;;;;;;19.47;100.00;101066.22;5200092;28;20426;-72
2021/09/15 08:32:27;;;;;;;94.80;46.03;;;;;;;19.44;100.00;101066.69;5199172;28;20112;-73
2021/09/15 08:34:58;;;;;;;97.60;46.05;;;;;;;19.33;100.00;101071.78;5200079;28;20029;-72
2021/09/15 08:37:33;;;;;;;107.63;49.38;;;;;;;19.28;100.00;101078.91;5200317;28;20079;-73
2021/09/15 08:40:07;;;;;;;105.90;48.92;;;;;;;19.27;100.00;101075.34;5199702;28;20026;-73
2021/09/15 08:42:38;;;;;;;106.47;50.72;;;;;;;19.20;100.00;101084.59;5182510;28;20030;-73
2021/09/15 08:45:11;;;;;;;100.38;47.22;;;;;;;19.14;100.00;101099.91;5199642;28;20025;-73
2021/09/15 08:47:44;;;;;;;92.45;45.97;;;;;;;19.07;100.00;101105.34;5200040;28;20441;-73
2021/09/15 08:50:16;;;;;;;91.65;45.13;;;;;;;18.99;100.00;101113.78;5199548;28;20026;-72
2021/09/15 08:52:47;;;;;;;87.47;42.58;;;;;;;19.01;100.00;101116.25;5200746;28;20191;-73
2021/09/15 08:55:17;;;;;;;92.85;45.33;;;;;;;19.14;100.00;101117.06;5182495;28;20026;-73
2021/09/15 08:57:48;;;;;;;98.55;46.47;;;;;;;19.29;100.00;101114.06;5200818;28;20025;-72
2021/09/15 09:00:18;;;;;;;89.38;44.35;;;;;;;19.51;100.00;101114.53;5200233;28;20025;-74
2021/09/15 09:02:51;;;;;;;73.50;39.92;;;;;;;19.78;100.00;101106.22;5200179;28;20029;-74
2021/09/15 09:05:22;;;;;;;65.97;37.25;;;;;;;20.08;100.00;101111.84;5201468;28;20026;-72
2021/09/15 09:07:52;;;;;;;52.88;29.50;;;;;;;20.36;100.00;101106.78;5202471;28;20022;-72
2021/09/15 09:10:23;;;;;;;40.10;25.42;;;;;;;20.49;100.00;101100.41;5200253;28;20029;-74
2021/09/15 09:12:53;;;;;;;29.52;18.35;;;;;;;20.70;100.00;101099.13;5199951;28;20030;-72
2021/09/15 09:15:26;;;;;;;33.20;19.27;;;;;;;20.91;100.00;101098.66;5195975;28;20506;-72
2021/09/15 09:17:59;;;;;;;34.90;20.15;;;;;;;21.25;100.00;101104.53;5199844;28;20108;-72
2021/09/15 09:20:35;;;;;;;31.88;19.90;;;;;;;21.56;100.00;101119.88;5199651;28;20113;-73
2021/09/15 09:23:14;;;;;;;32.80;20.65;;;;;;;21.85;100.00;101112.72;5199839;28;20386;-73
2021/09/15 09:25:55;;;;;;;27.83;19.08;;;;;;;21.65;100.00;101117.66;5199098;28;20033;-74
2021/09/15 09:28:29;;;;;;;30.08;21.08;;;;;;;21.38;100.00;101122.63;5199823;28;20052;-72
2021/09/15 09:31:03;;;;;;;38.80;24.20;;;;;;;20.98;100.00;101130.47;5199745;28;20081;-72
2021/09/15 09:33:34;;;;;;;37.40;23.67;;;;;;;20.71;100.00;101127.22;5199331;28;20057;-72
2021/09/15 09:36:07;;;;;;;44.03;25.95;;;;;;;20.44;100.00;101131.03;5202513;28;20018;-72
2021/09/15 09:38:41;;;;;;;38.42;24.67;;;;;;;20.46;100.00;101135.41;5203613;28;20021;-72
2021/09/15 09:41:15;;;;;;;39.17;25.93;;;;;;;20.22;100.00;101143.38;5203657;28;20029;-71
2021/09/15 09:43:50;;;;;;;40.25;24.92;;;;;;;20.09;100.00;101141.59;5202889;28;20026;-73
2021/09/15 09:46:30;;;;;;;39.95;24.20;;;;;;;20.15;100.00;101157.06;5201771;28;20040;-72
2021/09/15 09:49:03;;;;;;;39.65;25.40;;;;;;;20.36;100.00;101157.72;5203058;28;20108;-72
2021/09/15 09:51:36;;;;;;;39.15;22.98;;;;;;;20.41;100.00;101150.53;5203455;28;20083;-73
2021/09/15 09:54:10;;;;;;;39.30;23.58;;;;;;;20.34;100.00;101151.66;5202867;28;20033;-72
2021/09/15 09:56:42;;;;;;;40.58;25.42;;;;;;;20.36;100.00;101152.28;5202863;28;20044;-72
2021/09/15 09:59:14;;;;;;;39.38;23.60;;;;;;;20.43;100.00;101147.56;5203047;28;20026;-74
2021/09/15 10:01:46;;;;;;;39.08;22.77;;;;;;;20.53;100.00;101147.94;5203134;28;20029;-73
2021/09/15 10:04:19;;;;;;;41.17;23.60;;;;;;;20.89;100.00;101146.31;5202784;28;20049;-74
2021/09/15 10:06:50;;;;;;;38.47;23.30;;;;;;;21.56;100.00;101135.41;5203232;28;20366;-72
2021/09/15 10:09:22;;;;;;;33.05;22.08;;;;;;;22.02;100.00;101134.69;5202503;28;20029;-74
2021/09/15 10:11:55;;;;;;;35.50;22.67;;;;;;;22.25;100.00;101133.13;5203024;28;20462;-72
2021/09/15 10:14:26;;;;;;;36.33;22.83;;;;;;;22.14;100.00;101138.34;5202414;28;20057;-72
2021/09/15 10:17:00;;;;;;;38.25;23.08;;;;;;;21.65;100.00;101150.41;5203137;28;20016;-71
2021/09/15 10:19:38;;;;;;;37.22;22.80;;;;;;;21.30;100.00;101145.63;5196616;28;20022;-72
2021/09/15 10:22:09;;;;;;;39.65;24.40;;;;;;;21.03;100.00;101150.53;5199997;28;20021;-72
2021/09/15 10:24:56;;;;;;;43.22;28.35;;;;;;;20.52;100.00;101134.53;5199956;28;20380;-71
2021/09/15 10:27:29;;;;;;;41.13;25.83;;;;;;;20.18;100.00;101140.28;5213723;28;20376;-71
2021/09/15 10:30:02;;;;;;;42.00;25.90;;;;;;;19.95;100.00;101145.50;5182415;28;20029;-72
2021/09/15 10:32:35;;;;;;;43.42;26.58;;;;;;;19.84;100.00;101149.75;5200345;28;20557;-72
2021/09/15 10:35:07;;;;;;;57.08;33.58;;;;;;;19.55;100.00;101151.16;5200105;28;20032;-71
2021/09/15 10:37:38;;;;;;;60.95;35.35;;;;;;;19.53;100.00;101149.69;5194809;28;20075;-72
2021/09/15 10:40:10;;;;;;;57.20;34.15;;;;;;;19.54;100.00;101154.09;5200326;28;20029;-72
2021/09/15 10:45:18;;;;;;;46.28;26.90;;;;;;;19.59;100.00;101151.56;5201097;28;20056;-71
2021/09/15 10:48:11;;;;;;;38.72;23.20;;;;;;;19.63;100.00;101142.78;5200746;28;20475;-71
2021/09/15 10:50:42;;;;;;;40.22;22.48;;;;;;;19.84;100.00;101151.66;5189534;28;20036;-71
2021/09/15 10:53:13;;;;;;;34.38;21.38;;;;;;;19.97;100.00;101134.38;5212692;28;20533;-72
2021/09/15 10:55:46;;;;;;;37.25;22.90;;;;;;;20.21;100.00;101144.44;5200797;28;20018;-71
2021/09/15 10:58:26;;;;;;;33.72;20.63;;;;;;;20.20;100.00;101144.66;5201027;28;20025;-73
2021/09/15 11:00:59;;;;;;;35.55;21.05;;;;;;;20.32;100.00;101142.88;5200717;28;20033;-71
2021/09/15 11:03:33;;;;;;;30.02;19.75;;;;;;;20.55;100.00;101147.72;5201178;28;20032;-73
2021/09/15 11:06:07;;;;;;;29.30;20.02;;;;;;;20.54;100.00;101144.19;5200737;28;20112;-72
2021/09/15 11:08:39;;;;;;;26.55;16.58;;;;;;;20.72;100.00;101151.53;5201149;28;20037;-73
2021/09/15 11:11:31;;;;;;;26.65;16.25;;;;;;;20.74;100.00;101148.59;5200344;28;20025;-72
2021/09/15 11:14:06;;;;;;;20.02;13.52;;;;;;;20.81;100.00;101150.16;5200142;28;20051;-72
2021/09/15 11:16:39;;;;;;;18.17;10.95;;;;;;;20.73;100.00;101150.47;5200671;28;20018;-73
2021/09/15 11:19:13;;;;;;;16.75;10.48;;;;;;;20.59;100.00;101152.50;5200471;28;20117;-75
2021/09/15 11:21:48;;;;;;;18.98;10.65;;;;;;;20.61;100.00;101158.56;5200191;28;20284;-72
2021/09/15 11:24:23;;;;;;;14.27;9.23;;;;;;;20.72;100.00;101153.41;5200204;28;20083;-73
2021/09/15 11:26:57;;;;;;;14.25;9.20;;;;;;;20.80;100.00;101164.03;5200057;28;20035;-73
2021/09/15 11:29:41;;;;;;;15.70;9.23;;;;;;;20.88;100.00;101155.53;5200521;28;20447;-72